Breeze Hill, South Carolina
Current Conditions -  °F | °C
As of 10:53 AM on Saturday 25 Oct 2014 (Local Time) from KDNL Reporting Station
Clear Clear  
Wind Chill: 63°   Ceiling: Unl
Heat Index: 63°   Visibility: 10mi
Dew Point: 45°   Wind: 7mph
Humidity: 52%   Direction: 360°N
Pressure: 30.07"   Gusts: NA
Location:  33.5159°N, 81.8379°W
Report Text: KDNL 251453Z AUTO 36006KT 10SM CLR 17/07 A3007 RMK AO2 SLP179 T01720072 51008
Loading
Personal Weather Stations






























Interactive Weather Map New forecast layout! Learn more

10-Day Weather Forecast

Advertisements
Track Severe Weather on mobile